SKW4290 KDTW-KIMT
Flight info
| Callsign | SKW4290 |
|---|---|
| Flight time | 0h 58m |
| Altitude | 28000 |
| Route | MIGGY3 HUBBY IMT |
| Aircraft | CRJ7/M-SDFGIRWY/S |
Departure
| Time | 2026-05-07 18:12 |
|---|---|
| Airport | Detroit Metropolitan Wayne County Airport (KDTW) |
Arrival
| Time | 2026-05-07 19:10 |
|---|---|
| Airport | Ford Airport (KIMT) |
| Time | Latitude | Longitude | Altitude | Speed | Heading |
|---|---|---|---|---|---|
| 2026-05-07 17:46 | 42.21175 | -83.35932 | 648 ft | 0 kts | 296° |
| 2026-05-07 17:59 | 42.21174 | -83.35931 | 648 ft | 2 kts | 296° |
| 2026-05-07 17:59 | 42.21166 | -83.35911 | 648 ft | 2 kts | 303° |
| 2026-05-07 18:00 | 42.21162 | -83.35904 | 648 ft | 0 kts | 307° |
| 2026-05-07 18:00 | 42.21154 | -83.35886 | 649 ft | 2 kts | 297° |
| 2026-05-07 18:01 | 42.21148 | -83.35871 | 649 ft | 1 kts | 298° |
| 2026-05-07 18:01 | 42.21148 | -83.35870 | 649 ft | 0 kts | 298° |
| 2026-05-07 18:02 | 42.21149 | -83.35874 | 649 ft | 1 kts | 298° |
| 2026-05-07 18:02 | 42.21153 | -83.35882 | 649 ft | 0 kts | 298° |
| 2026-05-07 18:04 | 42.21153 | -83.35883 | 649 ft | 0 kts | 307° |
| 2026-05-07 18:04 | 42.21168 | -83.35889 | 650 ft | 1 kts | 21° |
| 2026-05-07 18:04 | 42.21182 | -83.35870 | 646 ft | 5 kts | 47° |
| 2026-05-07 18:05 | 42.21219 | -83.35820 | 648 ft | 9 kts | 39° |
| 2026-05-07 18:05 | 42.21273 | -83.35774 | 648 ft | 10 kts | 29° |
| 2026-05-07 18:05 | 42.21338 | -83.35728 | 648 ft | 11 kts | 27° |
| 2026-05-07 18:05 | 42.21410 | -83.35677 | 648 ft | 12 kts | 28° |
| 2026-05-07 18:06 | 42.21488 | -83.35618 | 647 ft | 13 kts | 31° |
| 2026-05-07 18:06 | 42.21544 | -83.35518 | 647 ft | 14 kts | 79° |
| 2026-05-07 18:06 | 42.21549 | -83.35379 | 650 ft | 15 kts | 88° |
| 2026-05-07 18:06 | 42.21551 | -83.35231 | 647 ft | 15 kts | 89° |
| 2026-05-07 18:07 | 42.21556 | -83.35102 | 647 ft | 13 kts | 73° |
| 2026-05-07 18:07 | 42.21613 | -83.35010 | 649 ft | 14 kts | 43° |
| 2026-05-07 18:07 | 42.21683 | -83.34921 | 648 ft | 14 kts | 44° |
| 2026-05-07 18:07 | 42.21753 | -83.34830 | 649 ft | 15 kts | 44° |
| 2026-05-07 18:08 | 42.21826 | -83.34730 | 650 ft | 14 kts | 62° |
| 2026-05-07 18:08 | 42.21836 | -83.34594 | 648 ft | 15 kts | 89° |
| 2026-05-07 18:08 | 42.21886 | -83.34479 | 648 ft | 16 kts | 28° |
| 2026-05-07 18:08 | 42.21987 | -83.34406 | 648 ft | 17 kts | 28° |
| 2026-05-07 18:09 | 42.22093 | -83.34327 | 649 ft | 18 kts | 30° |
| 2026-05-07 18:09 | 42.22204 | -83.34245 | 647 ft | 19 kts | 28° |
| 2026-05-07 18:09 | 42.22319 | -83.34160 | 648 ft | 19 kts | 28° |
| 2026-05-07 18:09 | 42.22438 | -83.34073 | 648 ft | 20 kts | 28° |
| 2026-05-07 18:10 | 42.22558 | -83.33983 | 649 ft | 20 kts | 29° |
| 2026-05-07 18:10 | 42.22682 | -83.33893 | 648 ft | 21 kts | 28° |
| 2026-05-07 18:10 | 42.22810 | -83.33798 | 648 ft | 19 kts | 28° |
| 2026-05-07 18:10 | 42.22852 | -83.33748 | 648 ft | 3 kts | 69° |
| 2026-05-07 18:11 | 42.22854 | -83.33723 | 647 ft | 3 kts | 96° |
| 2026-05-07 18:11 | 42.22842 | -83.33682 | 649 ft | 6 kts | 116° |
| 2026-05-07 18:11 | 42.22819 | -83.33635 | 648 ft | 5 kts | 153° |
| 2026-05-07 18:11 | 42.22794 | -83.33646 | 648 ft | 6 kts | 208° |
| 2026-05-07 18:12 | 42.22628 | -83.33775 | 650 ft | 64 kts | 211° |
| 2026-05-07 18:12 | 42.22002 | -83.34227 | 648 ft | 137 kts | 208° |
| 2026-05-07 18:12 | 42.21045 | -83.34948 | 939 ft | 170 kts | 216° |
| 2026-05-07 18:12 | 42.20061 | -83.35814 | 1851 ft | 170 kts | 223° |
| 2026-05-07 18:13 | 42.19245 | -83.36920 | 2847 ft | 158 kts | 236° |
| 2026-05-07 18:13 | 42.18633 | -83.38156 | 3615 ft | 163 kts | 243° |
| 2026-05-07 18:13 | 42.18155 | -83.39491 | 4535 ft | 151 kts | 254° |
| 2026-05-07 18:13 | 42.17980 | -83.41006 | 4825 ft | 182 kts | 264° |
| 2026-05-07 18:14 | 42.17616 | -83.42779 | 5140 ft | 210 kts | 249° |
| 2026-05-07 18:14 | 42.16959 | -83.44646 | 5611 ft | 230 kts | 246° |
| 2026-05-07 18:14 | 42.16220 | -83.46638 | 6154 ft | 245 kts | 245° |
| 2026-05-07 18:14 | 42.15467 | -83.48741 | 6840 ft | 252 kts | 247° |
| 2026-05-07 18:15 | 42.14728 | -83.50895 | 7619 ft | 254 kts | 247° |
| 2026-05-07 18:15 | 42.14198 | -83.53123 | 8355 ft | 256 kts | 269° |
| 2026-05-07 18:15 | 42.14462 | -83.55474 | 9194 ft | 255 kts | 283° |
| 2026-05-07 18:15 | 42.14922 | -83.57792 | 9954 ft | 258 kts | 288° |
| 2026-05-07 18:16 | 42.15827 | -83.59887 | 10615 ft | 264 kts | 305° |
| 2026-05-07 18:16 | 42.17018 | -83.61863 | 11004 ft | 280 kts | 307° |
| 2026-05-07 18:16 | 42.18308 | -83.63929 | 11253 ft | 298 kts | 307° |
| 2026-05-07 18:16 | 42.19649 | -83.66154 | 11616 ft | 311 kts | 305° |
| 2026-05-07 18:17 | 42.20998 | -83.68453 | 12281 ft | 315 kts | 307° |
| 2026-05-07 18:17 | 42.22781 | -83.70168 | 12895 ft | 330 kts | 332° |
| 2026-05-07 18:17 | 42.24946 | -83.71288 | 13560 ft | 337 kts | 337° |
| 2026-05-07 18:17 | 42.27249 | -83.72044 | 14150 ft | 345 kts | 344° |
| 2026-05-07 18:18 | 42.29638 | -83.72542 | 14696 ft | 351 kts | 346° |
| 2026-05-07 18:18 | 42.32070 | -83.72977 | 15239 ft | 354 kts | 346° |
| 2026-05-07 18:18 | 42.34522 | -83.73453 | 15773 ft | 357 kts | 345° |
| 2026-05-07 18:18 | 42.36981 | -83.74008 | 16297 ft | 360 kts | 343° |
| 2026-05-07 18:19 | 42.39462 | -83.74601 | 16810 ft | 364 kts | 343° |
| 2026-05-07 18:19 | 42.41934 | -83.75189 | 17317 ft | 367 kts | 343° |
| 2026-05-07 18:19 | 42.44462 | -83.75782 | 17826 ft | 371 kts | 343° |
| 2026-05-07 18:19 | 42.47017 | -83.76376 | 18329 ft | 374 kts | 344° |
| 2026-05-07 18:20 | 42.49591 | -83.76967 | 18768 ft | 376 kts | 344° |
| 2026-05-07 18:20 | 42.52178 | -83.77566 | 19193 ft | 379 kts | 343° |
| 2026-05-07 18:20 | 42.54785 | -83.78173 | 19620 ft | 381 kts | 343° |
| 2026-05-07 18:20 | 42.57406 | -83.78773 | 20026 ft | 383 kts | 343° |
| 2026-05-07 18:21 | 42.60026 | -83.79467 | 20416 ft | 384 kts | 341° |
| 2026-05-07 18:21 | 42.62589 | -83.80279 | 20812 ft | 385 kts | 339° |
| 2026-05-07 18:21 | 42.65187 | -83.81164 | 21204 ft | 387 kts | 339° |
| 2026-05-07 18:21 | 42.67809 | -83.82028 | 21585 ft | 389 kts | 339° |
| 2026-05-07 18:22 | 42.70451 | -83.82886 | 21962 ft | 391 kts | 339° |
| 2026-05-07 18:22 | 42.72209 | -83.83460 | 22201 ft | 393 kts | 339° |
| 2026-05-07 18:22 | 42.75777 | -83.84612 | 22683 ft | 396 kts | 339° |
| 2026-05-07 18:22 | 42.78321 | -83.85876 | 22977 ft | 383 kts | 322° |
| 2026-05-07 18:23 | 42.80456 | -83.87993 | 23322 ft | 378 kts | 313° |
| 2026-05-07 18:23 | 42.82347 | -83.90391 | 23634 ft | 376 kts | 309° |
| 2026-05-07 18:23 | 42.84179 | -83.92927 | 23939 ft | 377 kts | 308° |
| 2026-05-07 18:23 | 42.86031 | -83.95466 | 24230 ft | 378 kts | 309° |
| 2026-05-07 18:24 | 42.87912 | -83.97999 | 24449 ft | 382 kts | 310° |
| 2026-05-07 18:24 | 42.89813 | -84.00526 | 24729 ft | 383 kts | 310° |
| 2026-05-07 18:24 | 42.91729 | -84.03058 | 24993 ft | 384 kts | 310° |
| 2026-05-07 18:24 | 42.93645 | -84.05598 | 25264 ft | 385 kts | 309° |
| 2026-05-07 18:25 | 42.95567 | -84.08150 | 25525 ft | 386 kts | 309° |
| 2026-05-07 18:25 | 42.97469 | -84.10678 | 25774 ft | 387 kts | 309° |
| 2026-05-07 18:25 | 42.99404 | -84.13250 | 26023 ft | 389 kts | 309° |
| 2026-05-07 18:25 | 43.01343 | -84.15828 | 26274 ft | 390 kts | 309° |
| 2026-05-07 18:26 | 43.03277 | -84.18430 | 26515 ft | 391 kts | 309° |
| 2026-05-07 18:26 | 43.05224 | -84.21035 | 26754 ft | 392 kts | 309° |
| 2026-05-07 18:26 | 43.07177 | -84.23646 | 26990 ft | 393 kts | 309° |
| 2026-05-07 18:26 | 43.09135 | -84.26270 | 27209 ft | 396 kts | 309° |
| 2026-05-07 18:27 | 43.11106 | -84.28923 | 27365 ft | 399 kts | 309° |
| 2026-05-07 18:27 | 43.13066 | -84.31540 | 27603 ft | 400 kts | 310° |
| 2026-05-07 18:27 | 43.15060 | -84.34203 | 27806 ft | 401 kts | 310° |
| 2026-05-07 18:27 | 43.17058 | -84.36884 | 27913 ft | 405 kts | 310° |
| 2026-05-07 18:28 | 43.19081 | -84.39605 | 27955 ft | 410 kts | 310° |
| 2026-05-07 18:28 | 43.21127 | -84.42361 | 27970 ft | 415 kts | 310° |
| 2026-05-07 18:28 | 43.23205 | -84.45152 | 27971 ft | 421 kts | 310° |
| 2026-05-07 18:28 | 43.25433 | -84.47823 | 27971 ft | 429 kts | 315° |
| 2026-05-07 18:29 | 43.27810 | -84.50252 | 27971 ft | 432 kts | 319° |
| 2026-05-07 18:29 | 43.32757 | -84.54884 | 27975 ft | 428 kts | 320° |
| 2026-05-07 18:29 | 43.35189 | -84.57223 | 27964 ft | 425 kts | 319° |
| 2026-05-07 18:30 | 43.37584 | -84.59572 | 27957 ft | 421 kts | 319° |
| 2026-05-07 18:30 | 43.39959 | -84.61905 | 27959 ft | 418 kts | 319° |
| 2026-05-07 18:30 | 43.42314 | -84.64221 | 27957 ft | 415 kts | 319° |
| 2026-05-07 18:30 | 43.44657 | -84.66525 | 27957 ft | 412 kts | 319° |
| 2026-05-07 18:31 | 43.46948 | -84.68780 | 27964 ft | 409 kts | 319° |
| 2026-05-07 18:31 | 43.49258 | -84.71054 | 27966 ft | 407 kts | 319° |
| 2026-05-07 18:31 | 43.51551 | -84.73317 | 27989 ft | 405 kts | 319° |
| 2026-05-07 18:31 | 43.53834 | -84.75574 | 27974 ft | 403 kts | 320° |
| 2026-05-07 18:32 | 43.56106 | -84.77815 | 27969 ft | 401 kts | 320° |
| 2026-05-07 18:32 | 43.58366 | -84.80051 | 27969 ft | 399 kts | 320° |
| 2026-05-07 18:32 | 43.60615 | -84.82277 | 27946 ft | 397 kts | 320° |
| 2026-05-07 18:32 | 43.62854 | -84.84495 | 27949 ft | 395 kts | 319° |
| 2026-05-07 18:33 | 43.65057 | -84.86670 | 27951 ft | 394 kts | 319° |
| 2026-05-07 18:33 | 43.67276 | -84.88870 | 27956 ft | 392 kts | 319° |
| 2026-05-07 18:33 | 43.69456 | -84.91118 | 27957 ft | 388 kts | 315° |
| 2026-05-07 18:33 | 43.71392 | -84.93680 | 27961 ft | 384 kts | 309° |
| 2026-05-07 18:34 | 43.73159 | -84.96426 | 27969 ft | 381 kts | 306° |
| 2026-05-07 18:34 | 43.74854 | -84.99236 | 27970 ft | 380 kts | 306° |
| 2026-05-07 18:34 | 43.76551 | -85.02044 | 27970 ft | 382 kts | 306° |
| 2026-05-07 18:34 | 43.78245 | -85.04845 | 27974 ft | 387 kts | 307° |
| 2026-05-07 18:35 | 43.80007 | -85.07694 | 27979 ft | 392 kts | 307° |
| 2026-05-07 18:35 | 43.81796 | -85.10563 | 27987 ft | 396 kts | 308° |
| 2026-05-07 18:35 | 43.83604 | -85.13462 | 27987 ft | 400 kts | 307° |
| 2026-05-07 18:35 | 43.85429 | -85.16393 | 27985 ft | 404 kts | 307° |
| 2026-05-07 18:36 | 43.87269 | -85.19350 | 27983 ft | 407 kts | 308° |
| 2026-05-07 18:36 | 43.89128 | -85.22331 | 27981 ft | 410 kts | 308° |
| 2026-05-07 18:36 | 43.91000 | -85.25343 | 27984 ft | 414 kts | 307° |
| 2026-05-07 18:36 | 43.92856 | -85.28338 | 27986 ft | 416 kts | 308° |
| 2026-05-07 18:37 | 43.94752 | -85.31399 | 27979 ft | 420 kts | 308° |
| 2026-05-07 18:37 | 43.96662 | -85.34472 | 27975 ft | 422 kts | 308° |
| 2026-05-07 18:37 | 43.98579 | -85.37579 | 27972 ft | 424 kts | 308° |
| 2026-05-07 18:37 | 44.00507 | -85.40695 | 27971 ft | 427 kts | 308° |
| 2026-05-07 18:38 | 44.02442 | -85.43830 | 27968 ft | 428 kts | 308° |
| 2026-05-07 18:38 | 44.04386 | -85.46985 | 27967 ft | 430 kts | 308° |
| 2026-05-07 18:38 | 44.06336 | -85.50144 | 27964 ft | 431 kts | 308° |
| 2026-05-07 18:38 | 44.08118 | -85.53034 | 27965 ft | 429 kts | 308° |
| 2026-05-07 18:39 | 44.10050 | -85.56180 | 27958 ft | 426 kts | 308° |
| 2026-05-07 18:39 | 44.11964 | -85.59301 | 27953 ft | 423 kts | 308° |
| 2026-05-07 18:39 | 44.13868 | -85.62407 | 27952 ft | 421 kts | 308° |
| 2026-05-07 18:39 | 44.15764 | -85.65503 | 27964 ft | 419 kts | 308° |
| 2026-05-07 18:40 | 44.17653 | -85.68581 | 27962 ft | 417 kts | 308° |
| 2026-05-07 18:40 | 44.19528 | -85.71647 | 27957 ft | 416 kts | 308° |
| 2026-05-07 18:40 | 44.21398 | -85.74717 | 27969 ft | 414 kts | 308° |
| 2026-05-07 18:40 | 44.23237 | -85.77732 | 27967 ft | 413 kts | 308° |
| 2026-05-07 18:41 | 44.25099 | -85.80780 | 27978 ft | 412 kts | 308° |
| 2026-05-07 18:41 | 44.26948 | -85.83810 | 27987 ft | 411 kts | 308° |
| 2026-05-07 18:41 | 44.28801 | -85.86856 | 27986 ft | 410 kts | 308° |
| 2026-05-07 18:41 | 44.30642 | -85.89891 | 27992 ft | 409 kts | 308° |
| 2026-05-07 18:42 | 44.32478 | -85.92921 | 27989 ft | 408 kts | 308° |
| 2026-05-07 18:42 | 44.34312 | -85.95947 | 27988 ft | 407 kts | 308° |
| 2026-05-07 18:42 | 44.36141 | -85.98968 | 27986 ft | 407 kts | 308° |
| 2026-05-07 18:42 | 44.37943 | -86.01946 | 27984 ft | 406 kts | 308° |
| 2026-05-07 18:43 | 44.39772 | -86.04969 | 27714 ft | 407 kts | 308° |
| 2026-05-07 18:43 | 44.41578 | -86.07959 | 27383 ft | 397 kts | 308° |
| 2026-05-07 18:43 | 44.43347 | -86.10895 | 27055 ft | 394 kts | 308° |
| 2026-05-07 18:43 | 44.45111 | -86.13819 | 26734 ft | 392 kts | 308° |
| 2026-05-07 18:44 | 44.46866 | -86.16738 | 26381 ft | 392 kts | 308° |
| 2026-05-07 18:44 | 44.48621 | -86.19660 | 25967 ft | 393 kts | 308° |
| 2026-05-07 18:44 | 44.50362 | -86.22551 | 25566 ft | 394 kts | 308° |
| 2026-05-07 18:44 | 44.52121 | -86.25485 | 25183 ft | 394 kts | 308° |
| 2026-05-07 18:45 | 44.53884 | -86.28427 | 24785 ft | 393 kts | 308° |
| 2026-05-07 18:45 | 44.55639 | -86.31362 | 24389 ft | 392 kts | 308° |
| 2026-05-07 18:45 | 44.57391 | -86.34288 | 24005 ft | 391 kts | 309° |
| 2026-05-07 18:45 | 44.59139 | -86.37209 | 23622 ft | 390 kts | 309° |
| 2026-05-07 18:46 | 44.60878 | -86.40126 | 23183 ft | 389 kts | 309° |
| 2026-05-07 18:46 | 44.62613 | -86.43036 | 22741 ft | 388 kts | 308° |
| 2026-05-07 18:46 | 44.64317 | -86.45897 | 22289 ft | 387 kts | 308° |
| 2026-05-07 18:46 | 44.66036 | -86.48784 | 21848 ft | 383 kts | 308° |
| 2026-05-07 18:47 | 44.67736 | -86.51642 | 21413 ft | 380 kts | 308° |
| 2026-05-07 18:47 | 44.69419 | -86.54475 | 20988 ft | 376 kts | 308° |
| 2026-05-07 18:47 | 44.71093 | -86.57291 | 20566 ft | 374 kts | 308° |
| 2026-05-07 18:47 | 44.72752 | -86.60091 | 20144 ft | 371 kts | 308° |
| 2026-05-07 18:48 | 44.74398 | -86.62866 | 19738 ft | 368 kts | 308° |
| 2026-05-07 18:48 | 44.76024 | -86.65615 | 19372 ft | 363 kts | 308° |
| 2026-05-07 18:48 | 44.77603 | -86.68290 | 19027 ft | 358 kts | 308° |
| 2026-05-07 18:48 | 44.79182 | -86.70966 | 18681 ft | 354 kts | 308° |
| 2026-05-07 18:49 | 44.80749 | -86.73617 | 18335 ft | 351 kts | 308° |
| 2026-05-07 18:49 | 44.82301 | -86.76246 | 17967 ft | 347 kts | 308° |
| 2026-05-07 18:49 | 44.83833 | -86.78849 | 17627 ft | 343 kts | 308° |
| 2026-05-07 18:49 | 44.85314 | -86.81372 | 17296 ft | 340 kts | 308° |
| 2026-05-07 18:50 | 44.86815 | -86.83924 | 16969 ft | 337 kts | 308° |
| 2026-05-07 18:50 | 44.88303 | -86.86456 | 16642 ft | 334 kts | 308° |
| 2026-05-07 18:50 | 44.89775 | -86.88968 | 16324 ft | 331 kts | 308° |
| 2026-05-07 18:50 | 44.91218 | -86.91432 | 16010 ft | 329 kts | 307° |
| 2026-05-07 18:51 | 44.92675 | -86.93921 | 15697 ft | 327 kts | 308° |
| 2026-05-07 18:51 | 44.94122 | -86.96384 | 15376 ft | 325 kts | 308° |
| 2026-05-07 18:51 | 44.95559 | -86.98833 | 15076 ft | 322 kts | 308° |
| 2026-05-07 18:51 | 44.96979 | -87.01269 | 14770 ft | 321 kts | 307° |
| 2026-05-07 18:52 | 44.98402 | -87.03712 | 14472 ft | 323 kts | 308° |
| 2026-05-07 18:52 | 44.99818 | -87.06141 | 14180 ft | 326 kts | 308° |
| 2026-05-07 18:52 | 45.01260 | -87.08619 | 13893 ft | 327 kts | 308° |
| 2026-05-07 18:52 | 45.02710 | -87.11108 | 13585 ft | 328 kts | 308° |
| 2026-05-07 18:53 | 45.04161 | -87.13603 | 13258 ft | 329 kts | 307° |
| 2026-05-07 18:53 | 45.05615 | -87.16102 | 12935 ft | 329 kts | 308° |
| 2026-05-07 18:53 | 45.07069 | -87.18600 | 12612 ft | 329 kts | 307° |
| 2026-05-07 18:53 | 45.08519 | -87.21104 | 12280 ft | 328 kts | 307° |
| 2026-05-07 18:54 | 45.09952 | -87.23578 | 11978 ft | 322 kts | 307° |
| 2026-05-07 18:54 | 45.11362 | -87.26011 | 11661 ft | 317 kts | 307° |
| 2026-05-07 18:54 | 45.12732 | -87.28375 | 11351 ft | 313 kts | 307° |
| 2026-05-07 18:54 | 45.14103 | -87.30747 | 11037 ft | 309 kts | 307° |
| 2026-05-07 18:55 | 45.15458 | -87.33093 | 10725 ft | 306 kts | 307° |
| 2026-05-07 18:55 | 45.16787 | -87.35400 | 10429 ft | 297 kts | 307° |
| 2026-05-07 18:55 | 45.18077 | -87.37635 | 10113 ft | 289 kts | 307° |
| 2026-05-07 18:55 | 45.19329 | -87.39807 | 9798 ft | 281 kts | 307° |
| 2026-05-07 18:56 | 45.20551 | -87.41934 | 9460 ft | 275 kts | 307° |
| 2026-05-07 18:56 | 45.21736 | -87.43985 | 9128 ft | 270 kts | 307° |
| 2026-05-07 18:56 | 45.22914 | -87.46033 | 8791 ft | 265 kts | 307° |
| 2026-05-07 18:56 | 45.24069 | -87.48044 | 8461 ft | 261 kts | 307° |
| 2026-05-07 18:57 | 45.25211 | -87.50039 | 8142 ft | 261 kts | 307° |
| 2026-05-07 18:57 | 45.26358 | -87.52037 | 7828 ft | 261 kts | 307° |
| 2026-05-07 18:57 | 45.27505 | -87.54041 | 7516 ft | 262 kts | 307° |
| 2026-05-07 18:57 | 45.28652 | -87.56047 | 7209 ft | 262 kts | 307° |
| 2026-05-07 18:58 | 45.29801 | -87.58051 | 6904 ft | 261 kts | 307° |
| 2026-05-07 18:58 | 45.30931 | -87.60025 | 6601 ft | 261 kts | 307° |
| 2026-05-07 18:58 | 45.32073 | -87.62023 | 6293 ft | 260 kts | 307° |
| 2026-05-07 18:58 | 45.33210 | -87.64014 | 5984 ft | 259 kts | 308° |
| 2026-05-07 18:59 | 45.34345 | -87.65999 | 5668 ft | 258 kts | 307° |
| 2026-05-07 18:59 | 45.35466 | -87.67967 | 5339 ft | 255 kts | 307° |
| 2026-05-07 18:59 | 45.36585 | -87.69902 | 5041 ft | 252 kts | 308° |
| 2026-05-07 18:59 | 45.37692 | -87.71814 | 4739 ft | 250 kts | 307° |
| 2026-05-07 19:00 | 45.38790 | -87.73712 | 4416 ft | 247 kts | 307° |
| 2026-05-07 19:00 | 45.39861 | -87.75574 | 4102 ft | 246 kts | 307° |
| 2026-05-07 19:00 | 45.40942 | -87.77445 | 3792 ft | 244 kts | 307° |
| 2026-05-07 19:00 | 45.42018 | -87.79311 | 3480 ft | 243 kts | 307° |
| 2026-05-07 19:01 | 45.43076 | -87.81170 | 3253 ft | 240 kts | 307° |
| 2026-05-07 19:01 | 45.44128 | -87.83024 | 3124 ft | 240 kts | 307° |
| 2026-05-07 19:01 | 45.45169 | -87.84859 | 3075 ft | 237 kts | 307° |
| 2026-05-07 19:01 | 45.46220 | -87.86703 | 3057 ft | 244 kts | 306° |
| 2026-05-07 19:02 | 45.47277 | -87.88570 | 3046 ft | 242 kts | 307° |
| 2026-05-07 19:02 | 45.48308 | -87.90393 | 3038 ft | 230 kts | 307° |
| 2026-05-07 19:02 | 45.49274 | -87.92130 | 3034 ft | 218 kts | 306° |
| 2026-05-07 19:02 | 45.50193 | -87.93780 | 3034 ft | 207 kts | 306° |
| 2026-05-07 19:03 | 45.51067 | -87.95358 | 3073 ft | 199 kts | 306° |
| 2026-05-07 19:03 | 45.51923 | -87.96880 | 3065 ft | 197 kts | 306° |
| 2026-05-07 19:03 | 45.52796 | -87.98439 | 3073 ft | 200 kts | 306° |
| 2026-05-07 19:03 | 45.53647 | -87.99939 | 3058 ft | 195 kts | 306° |
| 2026-05-07 19:04 | 45.54481 | -88.01429 | 3047 ft | 190 kts | 306° |
| 2026-05-07 19:04 | 45.55329 | -88.02923 | 3048 ft | 201 kts | 307° |
| 2026-05-07 19:04 | 45.56217 | -88.04494 | 3066 ft | 203 kts | 306° |
| 2026-05-07 19:04 | 45.57094 | -88.06056 | 3064 ft | 200 kts | 306° |
| 2026-05-07 19:05 | 45.57966 | -88.07600 | 3054 ft | 199 kts | 306° |
| 2026-05-07 19:05 | 45.58808 | -88.09135 | 3073 ft | 192 kts | 306° |
| 2026-05-07 19:05 | 45.59636 | -88.10579 | 3063 ft | 186 kts | 306° |
| 2026-05-07 19:05 | 45.60444 | -88.11976 | 3082 ft | 180 kts | 307° |
| 2026-05-07 19:06 | 45.61241 | -88.13371 | 3078 ft | 191 kts | 306° |
| 2026-05-07 19:06 | 45.63588 | -88.14974 | 3079 ft | 198 kts | 356° |
| 2026-05-07 19:06 | 45.64970 | -88.14765 | 3095 ft | 202 kts | 2° |
| 2026-05-07 19:07 | 45.66326 | -88.14445 | 3094 ft | 194 kts | 3° |
| 2026-05-07 19:07 | 45.67662 | -88.14126 | 3082 ft | 198 kts | 5° |
| 2026-05-07 19:07 | 45.69016 | -88.13808 | 3074 ft | 191 kts | 4° |
| 2026-05-07 19:07 | 45.70246 | -88.13539 | 3047 ft | 173 kts | 2° |
| 2026-05-07 19:08 | 45.71398 | -88.13300 | 3036 ft | 168 kts | 3° |
| 2026-05-07 19:08 | 45.72500 | -88.13054 | 2916 ft | 152 kts | 1° |
| 2026-05-07 19:08 | 45.73553 | -88.12852 | 2745 ft | 152 kts | 358° |
| 2026-05-07 19:08 | 45.74600 | -88.12767 | 2613 ft | 150 kts | 359° |
| 2026-05-07 19:09 | 45.75652 | -88.12581 | 2371 ft | 153 kts | 359° |
| 2026-05-07 19:09 | 45.76706 | -88.12365 | 2114 ft | 152 kts | 2° |
| 2026-05-07 19:09 | 45.77758 | -88.12146 | 1860 ft | 153 kts | 3° |
| 2026-05-07 19:09 | 45.78798 | -88.11952 | 1593 ft | 151 kts | 1° |
| 2026-05-07 19:10 | 45.79838 | -88.11770 | 1384 ft | 150 kts | 3° |
| 2026-05-07 19:10 | 45.80859 | -88.11549 | 1185 ft | 144 kts | 5° |
| 2026-05-07 19:10 | 45.81760 | -88.11376 | 1125 ft | 108 kts | 5° |
| 2026-05-07 19:10 | 45.82229 | -88.11313 | 1142 ft | 43 kts | 9° |
| 2026-05-07 19:11 | 45.82509 | -88.11245 | 1152 ft | 38 kts | 9° |
| 2026-05-07 19:11 | 45.82742 | -88.11192 | 1158 ft | 20 kts | 9° |
| 2026-05-07 19:11 | 45.82813 | -88.11240 | 1160 ft | 6 kts | 285° |
| 2026-05-07 19:11 | 45.82815 | -88.11314 | 1159 ft | 9 kts | 245° |
| 2026-05-07 19:12 | 45.82742 | -88.11350 | 1157 ft | 15 kts | 187° |
| 2026-05-07 19:12 | 45.82614 | -88.11374 | 1154 ft | 22 kts | 188° |
| 2026-05-07 19:12 | 45.82449 | -88.11407 | 1149 ft | 25 kts | 188° |
| 2026-05-07 19:12 | 45.82265 | -88.11441 | 1145 ft | 26 kts | 186° |
| 2026-05-07 19:13 | 45.82113 | -88.11470 | 1141 ft | 23 kts | 188° |
| 2026-05-07 19:13 | 45.81945 | -88.11501 | 1136 ft | 26 kts | 187° |
| 2026-05-07 19:13 | 45.81761 | -88.11536 | 1131 ft | 24 kts | 187° |
| 2026-05-07 19:13 | 45.81624 | -88.11575 | 1131 ft | 18 kts | 206° |
| 2026-05-07 19:14 | 45.81541 | -88.11659 | 1132 ft | 9 kts | 189° |
| 2026-05-07 19:14 | 45.81510 | -88.11724 | 1126 ft | 8 kts | 304° |
| 2026-05-07 19:14 | 45.81519 | -88.11739 | 1133 ft | 0 kts | 313° |